Aviation Digital Data Service (ADDS)

Output produced by METARs form (0021 UTC 25 April 2019)
found at http://www.aviationweather.gov/metar/data/
 
METAR text: RPLI 250000Z 18002KT 8000 FEW018 29/26 Q1010 NOSIG RMK A2983
Conditions at: RPLI (LAOAG INTL(PH-AR, PH) observed 0000 UTC 25 April 2019
Temperature: 29.0°C (84°F)
Dewpoint: 26.0°C (79°F) [RH = 84%]
Pressure (altimeter): 29.82 inches Hg (1010.0 mb)
Winds: from the S (180 degrees) at 2 MPH (2 knots; 1.0 m/s)
Visibility: 5 miles ( 8 km)
Ceiling: at least 12,000 feet AGL
Clouds: few clouds at 1800 feet AGL
Weather: no significant weather observed at this time

METAR text: RPLI 242300Z 14002KT 6000 FEW018 27/25 Q1010 NOSIG RMK A2983
Conditions at: RPLI (LAOAG INTL(PH-AR, PH) observed 2300 UTC 24 April 2019
Temperature: 27.0°C (81°F)
Dewpoint: 25.0°C (77°F) [RH = 89%]
Pressure (altimeter): 29.82 inches Hg (1010.0 mb)
Winds: from the SE (140 degrees) at 2 MPH (2 knots; 1.0 m/s)
Visibility: 4 miles ( 6 km)
Ceiling: at least 12,000 feet AGL
Clouds: few clouds at 1800 feet AGL
Weather: no significant weather observed at this time

METAR text: RPLI 242200Z 16002KT 6000 FEW018 25/24 Q1009 NOSIG RMK A2980
Conditions at: RPLI (LAOAG INTL(PH-AR, PH) observed 2200 UTC 24 April 2019
Temperature: 25.0°C (77°F)
Dewpoint: 24.0°C (75°F) [RH = 94%]
Pressure (altimeter): 29.79 inches Hg (1009.0 mb)
Winds: from the SSE (160 degrees) at 2 MPH (2 knots; 1.0 m/s)
Visibility: 4 miles ( 6 km)
Ceiling: at least 12,000 feet AGL
Clouds: few clouds at 1800 feet AGL
Weather: no significant weather observed at this time

METAR text: RPLI 242100Z 16002KT 9999 FEW018 26/25 Q1008 NOSIG RMK A2977
Conditions at: RPLI (LAOAG INTL(PH-AR, PH) observed 2100 UTC 24 April 2019
Temperature: 26.0°C (79°F)
Dewpoint: 25.0°C (77°F) [RH = 94%]
Pressure (altimeter): 29.76 inches Hg (1008.0 mb)
Winds: from the SSE (160 degrees) at 2 MPH (2 knots; 1.0 m/s)
Visibility: 6 or more miles (10+ km)
Ceiling: at least 12,000 feet AGL
Clouds: few clouds at 1800 feet AGL
Weather: no significant weather observed at this time

METAR text: RPLI 241800Z 16002KT 9999 FEW018 26/25 Q1008 NOSIG RMK A2977
Conditions at: RPLI (LAOAG INTL(PH-AR, PH) observed 1800 UTC 24 April 2019
Temperature: 26.0°C (79°F)
Dewpoint: 25.0°C (77°F) [RH = 94%]
Pressure (altimeter): 29.76 inches Hg (1008.0 mb)
Winds: from the SSE (160 degrees) at 2 MPH (2 knots; 1.0 m/s)
Visibility: 6 or more miles (10+ km)
Ceiling: at least 12,000 feet AGL
Clouds: few clouds at 1800 feet AGL
Weather: no significant weather observed at this time

METAR text: RPLI 241500Z 04002KT 9999 FEW018 28/26 Q1010 NOSIG RMK A2983
Conditions at: RPLI (LAOAG INTL(PH-AR, PH) observed 1500 UTC 24 April 2019
Temperature: 28.0°C (82°F)
Dewpoint: 26.0°C (79°F) [RH = 89%]
Pressure (altimeter): 29.82 inches Hg (1010.0 mb)
Winds: from the NE (40 degrees) at 2 MPH (2 knots; 1.0 m/s)
Visibility: 6 or more miles (10+ km)
Ceiling: at least 12,000 feet AGL
Clouds: few clouds at 1800 feet AGL
Weather: no significant weather observed at this time

METAR text: RPLI 241200Z 04002KT 9999 FEW018 SCT290 30/26 Q1010 NOSIG RMK A2983
Conditions at: RPLI (LAOAG INTL(PH-AR, PH) observed 1200 UTC 24 April 2019
Temperature: 30.0°C (86°F)
Dewpoint: 26.0°C (79°F) [RH = 79%]
Pressure (altimeter): 29.82 inches Hg (1010.0 mb)
Winds: from the NE (40 degrees) at 2 MPH (2 knots; 1.0 m/s)
Visibility: 6 or more miles (10+ km)
Ceiling: at least 12,000 feet AGL
Clouds: few clouds at 1800 feet AGL
scattered clouds at 29000 feet AGL
Weather: no significant weather observed at this time

METAR text: RPLI 241100Z 36004KT 9999 FEW018 SCT100 BKN280 30/26 Q1010 NOSIG RMK A2983
Conditions at: RPLI (LAOAG INTL(PH-AR, PH) observed 1100 UTC 24 April 2019
Temperature: 30.0°C (86°F)
Dewpoint: 26.0°C (79°F) [RH = 79%]
Pressure (altimeter): 29.82 inches Hg (1010.0 mb)
Winds: from the N (360 degrees) at 5 MPH (4 knots; 2.1 m/s)
Visibility: 6 or more miles (10+ km)
Ceiling: 28000 feet AGL
Clouds: few clouds at 1800 feet AGL
scattered clouds at 10000 feet AGL
broken clouds at 28000 feet AGL
Weather: no significant weather observed at this time

METAR text: RPLI 241000Z 34004KT 9999 FEW018 BKN100 30/26 Q1009 NOSIG RMK A2980
Conditions at: RPLI (LAOAG INTL(PH-AR, PH) observed 1000 UTC 24 April 2019
Temperature: 30.0°C (86°F)
Dewpoint: 26.0°C (79°F) [RH = 79%]
Pressure (altimeter): 29.79 inches Hg (1009.0 mb)
Winds: from the NNW (340 degrees) at 5 MPH (4 knots; 2.1 m/s)
Visibility: 6 or more miles (10+ km)
Ceiling: 10000 feet AGL
Clouds: few clouds at 1800 feet AGL
broken clouds at 10000 feet AGL
Weather: no significant weather observed at this time

METAR text: RPLI 240900Z 34004KT 9999 FEW017CB SCT018 BKN100 31/26 Q1009 NOSIG RMK A2980 CB E-SE
Conditions at: RPLI (LAOAG INTL(PH-AR, PH) observed 0900 UTC 24 April 2019
Temperature: 31.0°C (88°F)
Dewpoint: 26.0°C (79°F) [RH = 75%]
Pressure (altimeter): 29.79 inches Hg (1009.0 mb)
Winds: from the NNW (340 degrees) at 5 MPH (4 knots; 2.1 m/s)
Visibility: 6 or more miles (10+ km)
Ceiling: 10000 feet AGL
Clouds: few clouds at 1700 feet AGL
scattered clouds at 1800 feet AGL
broken clouds at 10000 feet AGL
Weather: no significant weather observed at this time

METAR text: RPLI 240800Z 29006KT 9999 FEW017CB SCT018 32/26 Q1010 NOSIG RMK A2983 CB NE
Conditions at: RPLI (LAOAG INTL(PH-AR, PH) observed 0800 UTC 24 April 2019
Temperature: 32.0°C (90°F)
Dewpoint: 26.0°C (79°F) [RH = 71%]
Pressure (altimeter): 29.82 inches Hg (1010.0 mb)
Winds: from the WNW (290 degrees) at 7 MPH (6 knots; 3.1 m/s)
Visibility: 6 or more miles (10+ km)
Ceiling: at least 12,000 feet AGL
Clouds: few clouds at 1700 feet AGL
scattered clouds at 1800 feet AGL
Weather: no significant weather observed at this time

METAR text: RPLI 240700Z 29006KT 9999 FEW017CB SCT018 32/26 Q1009 NOSIG RMK A2980 CB SE
Conditions at: RPLI (LAOAG INTL(PH-AR, PH) observed 0700 UTC 24 April 2019
Temperature: 32.0°C (90°F)
Dewpoint: 26.0°C (79°F) [RH = 71%]
Pressure (altimeter): 29.79 inches Hg (1009.0 mb)
Winds: from the WNW (290 degrees) at 7 MPH (6 knots; 3.1 m/s)
Visibility: 6 or more miles (10+ km)
Ceiling: at least 12,000 feet AGL
Clouds: few clouds at 1700 feet AGL
scattered clouds at 1800 feet AGL
Weather: no significant weather observed at this time

METAR text: RPLI 240600Z 29006KT 9999 FEW017CB SCT018 32/26 Q1010 NOSIG RMK A2983 CB ESE
Conditions at: RPLI (LAOAG INTL(PH-AR, PH) observed 0600 UTC 24 April 2019
Temperature: 32.0°C (90°F)
Dewpoint: 26.0°C (79°F) [RH = 71%]
Pressure (altimeter): 29.82 inches Hg (1010.0 mb)
Winds: from the WNW (290 degrees) at 7 MPH (6 knots; 3.1 m/s)
Visibility: 6 or more miles (10+ km)
Ceiling: at least 12,000 feet AGL
Clouds: few clouds at 1700 feet AGL
scattered clouds at 1800 feet AGL
Weather: no significant weather observed at this time

METAR text: RPLI 240500Z 27010KT 9999 FEW018 32/25 Q1010 NOSIG RMK A2983
Conditions at: RPLI (LAOAG INTL(PH-AR, PH) observed 0500 UTC 24 April 2019
Temperature: 32.0°C (90°F)
Dewpoint: 25.0°C (77°F) [RH = 67%]
Pressure (altimeter): 29.82 inches Hg (1010.0 mb)
Winds: from the W (270 degrees) at 12 MPH (10 knots; 5.1 m/s)
Visibility: 6 or more miles (10+ km)
Ceiling: at least 12,000 feet AGL
Clouds: few clouds at 1800 feet AGL
Weather: no significant weather observed at this time

METAR text: RPLI 240400Z 27008KT 9999 FEW018 SCT100 32/26 Q1011 NOSIG RMK A2985
Conditions at: RPLI (LAOAG INTL(PH-AR, PH) observed 0400 UTC 24 April 2019
Temperature: 32.0°C (90°F)
Dewpoint: 26.0°C (79°F) [RH = 71%]
Pressure (altimeter): 29.85 inches Hg (1011.0 mb)
Winds: from the W (270 degrees) at 9 MPH (8 knots; 4.1 m/s)
Visibility: 6 or more miles (10+ km)
Ceiling: at least 12,000 feet AGL
Clouds: few clouds at 1800 feet AGL
scattered clouds at 10000 feet AGL
Weather: no significant weather observed at this time

METAR text: RPLI 240300Z 29006KT 9999 FEW018 31/25 Q1011 NOSIG RMK A2985
Conditions at: RPLI (LAOAG INTL(PH-AR, PH) observed 0300 UTC 24 April 2019
Temperature: 31.0°C (88°F)
Dewpoint: 25.0°C (77°F) [RH = 71%]
Pressure (altimeter): 29.85 inches Hg (1011.0 mb)
Winds: from the WNW (290 degrees) at 7 MPH (6 knots; 3.1 m/s)
Visibility: 6 or more miles (10+ km)
Ceiling: at least 12,000 feet AGL
Clouds: few clouds at 1800 feet AGL
Weather: no significant weather observed at this time

METAR text: RPLI 240200Z 29006KT 9999 FEW018 31/24 Q1011 NOSIG RMK A2985
Conditions at: RPLI (LAOAG INTL(PH-AR, PH) observed 0200 UTC 24 April 2019
Temperature: 31.0°C (88°F)
Dewpoint: 24.0°C (75°F) [RH = 66%]
Pressure (altimeter): 29.85 inches Hg (1011.0 mb)
Winds: from the WNW (290 degrees) at 7 MPH (6 knots; 3.1 m/s)
Visibility: 6 or more miles (10+ km)
Ceiling: at least 12,000 feet AGL
Clouds: few clouds at 1800 feet AGL
Weather: no significant weather observed at this time

METAR text: RPLI 240100Z 34006KT 8000 FEW018 30/25 Q1011 NOSIG RMK A2985
Conditions at: RPLI (LAOAG INTL(PH-AR, PH) observed 0100 UTC 24 April 2019
Temperature: 30.0°C (86°F)
Dewpoint: 25.0°C (77°F) [RH = 75%]
Pressure (altimeter): 29.85 inches Hg (1011.0 mb)
Winds: from the NNW (340 degrees) at 7 MPH (6 knots; 3.1 m/s)
Visibility: 5 miles ( 8 km)
Ceiling: at least 12,000 feet AGL
Clouds: few clouds at 1800 feet AGL
Weather: no significant weather observed at this time

METAR text: RPLI 240000Z 16004KT 8000 FEW018 29/25 Q1010 NOSIG RMK A2983
Conditions at: RPLI (LAOAG INTL(PH-AR, PH) observed 0000 UTC 24 April 2019
Temperature: 29.0°C (84°F)
Dewpoint: 25.0°C (77°F) [RH = 79%]
Pressure (altimeter): 29.82 inches Hg (1010.0 mb)
Winds: from the SSE (160 degrees) at 5 MPH (4 knots; 2.1 m/s)
Visibility: 5 miles ( 8 km)
Ceiling: at least 12,000 feet AGL
Clouds: few clouds at 1800 feet AGL
Weather: no significant weather observed at this time

METAR text: RPLI 232300Z 11002KT 8000 FEW018 27/26 Q1010 NOSIG RMK A2983
Conditions at: RPLI (LAOAG INTL(PH-AR, PH) observed 2300 UTC 23 April 2019
Temperature: 27.0°C (81°F)
Dewpoint: 26.0°C (79°F) [RH = 94%]
Pressure (altimeter): 29.82 inches Hg (1010.0 mb)
Winds: from the ESE (110 degrees) at 2 MPH (2 knots; 1.0 m/s)
Visibility: 5 miles ( 8 km)
Ceiling: at least 12,000 feet AGL
Clouds: few clouds at 1800 feet AGL
Weather: no significant weather observed at this time

METAR text: RPLI 232200Z 14002KT 8000 FEW018 26/25 Q1010 NOSIG RMK A2983
Conditions at: RPLI (LAOAG INTL(PH-AR, PH) observed 2200 UTC 23 April 2019
Temperature: 26.0°C (79°F)
Dewpoint: 25.0°C (77°F) [RH = 94%]
Pressure (altimeter): 29.82 inches Hg (1010.0 mb)
Winds: from the SE (140 degrees) at 2 MPH (2 knots; 1.0 m/s)
Visibility: 5 miles ( 8 km)
Ceiling: at least 12,000 feet AGL
Clouds: few clouds at 1800 feet AGL
Weather: no significant weather observed at this time

METAR text: RPLI 232100Z 14002KT 9999 FEW018 BKN290 26/25 Q1010 NOSIG RMK A2983
Conditions at: RPLI (LAOAG INTL(PH-AR, PH) observed 2100 UTC 23 April 2019
Temperature: 26.0°C (79°F)
Dewpoint: 25.0°C (77°F) [RH = 94%]
Pressure (altimeter): 29.82 inches Hg (1010.0 mb)
Winds: from the SE (140 degrees) at 2 MPH (2 knots; 1.0 m/s)
Visibility: 6 or more miles (10+ km)
Ceiling: 29000 feet AGL
Clouds: few clouds at 1800 feet AGL
broken clouds at 29000 feet AGL
Weather: no significant weather observed at this time

METAR text: RPLI 231800Z 11002KT 9999 FEW018 BKN290 27/24 Q1010 NOSIG RMK A2983
Conditions at: RPLI (LAOAG INTL(PH-AR, PH) observed 1800 UTC 23 April 2019
Temperature: 27.0°C (81°F)
Dewpoint: 24.0°C (75°F) [RH = 84%]
Pressure (altimeter): 29.82 inches Hg (1010.0 mb)
Winds: from the ESE (110 degrees) at 2 MPH (2 knots; 1.0 m/s)
Visibility: 6 or more miles (10+ km)
Ceiling: 29000 feet AGL
Clouds: few clouds at 1800 feet AGL
broken clouds at 29000 feet AGL
Weather: no significant weather observed at this time

METAR text: RPLI 231500Z 02002KT 9999 FEW018 BKN100 29/25 Q1011 NOSIG RMK A2985
Conditions at: RPLI (LAOAG INTL(PH-AR, PH) observed 1500 UTC 23 April 2019
Temperature: 29.0°C (84°F)
Dewpoint: 25.0°C (77°F) [RH = 79%]
Pressure (altimeter): 29.85 inches Hg (1011.0 mb)
Winds: from the NNE (20 degrees) at 2 MPH (2 knots; 1.0 m/s)
Visibility: 6 or more miles (10+ km)
Ceiling: 10000 feet AGL
Clouds: few clouds at 1800 feet AGL
broken clouds at 10000 feet AGL
Weather: no significant weather observed at this time

Forecast for: RPLI (LAOAG INTL(PH-AR, PH)
Text: TAF RPLI 242300Z 2500/2524 36006KT 9999 FEW018
Forecast period: 0000 UTC 25 April 2019 to 0000 UTC 26 April 2019
Forecast type: FROM: standard forecast or significant change
Winds: from the N (360 degrees) at 7 MPH (6 knots; 3.1 m/s)
Visibility: 6 or more miles 10+ km)
Ceiling: at least 12,000 feet AGL
Clouds: few clouds at 1800 feet AGL
Weather: no significant weather forecast for this period
Text: TEMPO 2500/2506 29010KT
Forecast period: 0000 to 0600 UTC 25 April 2019
Forecast type: TEMPORARY: The following changes expected for less than half the time period
Winds: from the WNW (290 degrees) at 12 MPH (10 knots; 5.1 m/s)
Visibility: missing
Ceiling: unknown
Clouds: missing
Weather: no significant weather forecast for this period
Text: TEMPO 2506/2512 04006KT FEW017CB SCT018 BKN100
Forecast period: 0600 to 1200 UTC 25 April 2019
Forecast type: TEMPORARY: The following changes expected for less than half the time period
Winds: from the NE (40 degrees) at 7 MPH (6 knots; 3.1 m/s)
Visibility: missing
Ceiling: 10000 feet AGL
Clouds: few clouds at 1700 feet AGL
scattered clouds at 1800 feet AGL
broken clouds at 10000 feet AGL
Weather: no significant weather forecast for this period